logo
Search for airport 
image banner adimage banner adimage banner ad
image banner ad

LKLN - Plzen/Line

Located in Plzen, Czech Republic

ICAO - LKLN, IATA -

Data provided by Airmate  

General information

Coordinates: N49°40'31" E13°16'28"
Elevation is 1188 feet MSL.
 
View others Airports in Plzen Region

Operational data

Special qualification required
Current time UTC:
Current local time:
Weather
METAR: LKLN 270300Z AUTO VRB02KT 7000 BKN170 BKN200 11/10 Q1019
View NOTAMs / SUP AIP / TFR affecting this airport [VIEW]
Communications frequencies: [VIEW]

Runways:

RWY identifierQFULength (ft)Width (ft)SurfaceLDA (ft)
0658°4757197CON
24238°4757197CON

Airport contact information

Address: Plzen Czech Republic

Handlers

Pizen-Line Airport

Pizen-Line Airport
[VIEW][VIEW]
+420733121167

Euro Jet

Euro Jet
[VIEW][VIEW]
+420736470704

Other aviation service providers

Flight schools

Aerocentrum

Aerocentrum
info@aerocentrum.cz+420277000709

Letecká Škola Šk

Letecká Škola Šk

Satellite view of LKLN